LFLLLIMF

Guest
Details From LFLL - Lyon Saint Exupery
To LIMF - Torino Caselle
Flight Number -
Tags generated
Created
Modified
Stats Distance 112 nm / 208 km
Max Altitude 13,700 ft / 4,176 m
Waypoints 3
Social Downloads 1
Likes 0
Share VATSIM

Download

Looking for another format? Having issues loading an existing format? Contact us
Advertisement - Login to hide

Notes

Basic altitude profile: - Ascent Rate: 2500ft/min - Ascent Speed: 200kts - Cruise Altitude: 15000ft - Cruise Speed: 250kts - Descent Rate: 1500ft/min - Descent Speed: 170kts Options: - Use NATs: yes - Use PACOTS: yes - Use low airways: yes - Use high airways: yes

Route

LFLL RISOR LIMF

ID Type Via Altitude Latitude Longitude Leg Dist Tot Dist Heading (true) Name
O LFLL APT - 0 ft / 0 m 45.72581˚ 5.09075˚ - 0 nm - Lyon Saint Exupery
RISOR FIX - 13,700 ft / 4,176 m 45.53833˚ 5.96417˚ 38 nm 38 nm 107° / 107° -
O LIMF APT - 0 ft / 0 m 45.20076˚ 7.64963˚ 73 nm 112 nm 105° / 107° Torino Caselle

Altitude Profile

Advertisement - Login to hide

LFLL

Details ICAO LFLL (LYS)
Name Lyon Saint Exupery
Region France
Timezone Europe/Paris (UTC+1.0)
Stats Elevation 820 ft / 250 m (AMSL)
Location 45.725812° 5.090748°
Runways 2
Magnetic Variation 1.487° E

METAR

LFLL 111900Z AUTO 16007KT 9999 FEW043 BKN050 OVC110 08/03 Q0992

Decode

TAF

TAF TAF LFLL 111833Z 1118/1224 CNL

Decode

Departure Runways

ID Width Length Bearing (true) Bearing (mag) Surface Threshold Offset Overrun Length
18L 148 ft / 45 m 8,798 ft / 2,682 m 175.13° 173.64° Asphalt 33 ft / 10 m 52 ft / 16 m
18R 148 ft / 45 m 13,149 ft / 4,008 m 175.14° 173.65° Asphalt 16 ft / 5 m 203 ft / 62 m
36L 148 ft / 45 m 13,149 ft / 4,008 m 355.15° 353.66° Asphalt 36 ft / 11 m 151 ft / 46 m
36R 148 ft / 45 m 8,798 ft / 2,682 m 355.13° 353.64° Asphalt 26 ft / 8 m 52 ft / 16 m

LIMF

Details ICAO LIMF (TRN)
Name Torino Caselle
Region Italy
Timezone Europe/Rome (UTC+1.0)
Stats Elevation 989 ft / 301 m (AMSL)
Location 45.200763° 7.649630°
Runways 1
Magnetic Variation 2.121° E

METAR

LIMF 111850Z VRB01KT 1100 R36/P1500N -SN OVC003 00/00 Q0994 RESN R36/290295

Decode

TAF

TAF LIMF 111700Z 1118/1218 VRB05KT 1200 SN OVC005 BECMG 1120/1122 2500 BR BKN025 BKN060 TEMPO 1200/1206 0500 FZFG BKN005 BECMG 1207/1210 7000

Decode

Destination Runways

ID Width Length Bearing (true) Bearing (mag) Surface Threshold Offset Overrun Length
18 197 ft / 60 m 10,835 ft / 3,303 m 182.56° 180.44° Asphalt 2,378 ft / 725 m 970 ft / 296 m
36 197 ft / 60 m 10,835 ft / 3,303 m 2.56° 0.44° Asphalt 1,148 ft / 350 m 0 ft / 0 m

Approach Navaids

Runway Type Ident Frequency Range Bearing (true) Bearing (mag) Slope Elevation
36 Localiser ITOC 108.70 MHz 18 nm / 33 km 2.56° 0.44° - 989 ft / 301 m (AMSL)
36 Glidescope ITOC 108.70 MHz 10 nm / 19 km 2.56° 0.44° 3.00° 989 ft / 301 m (AMSL)
36 DME ITOC 108.70 MHz 25 nm / 46 km - - - 989 ft / 301 m (AMSL)

Popular Alternatives